createdAt,value
2022-07-29T00:00:07.084Z,49.90
2022-07-29T00:02:34.047Z,49.90
2022-07-29T00:05:00.832Z,50.00
2022-07-29T00:07:27.561Z,50.20
2022-07-29T00:09:54.280Z,50.40
2022-07-29T00:12:25.532Z,50.60
2022-07-29T00:14:56.403Z,50.70
2022-07-29T00:17:24.048Z,50.70
2022-07-29T00:19:50.695Z,50.80
2022-07-29T00:22:17.459Z,50.80
2022-07-29T00:24:44.142Z,51.00
2022-07-29T00:27:10.761Z,51.20
2022-07-29T00:29:37.406Z,51.30
2022-07-29T00:32:04.299Z,51.40
2022-07-29T00:34:31.304Z,51.50
2022-07-29T00:36:58.082Z,51.60
2022-07-29T00:39:24.764Z,51.70
2022-07-29T00:41:53.527Z,51.70
2022-07-29T00:44:20.224Z,51.70
2022-07-29T00:46:46.933Z,51.80
2022-07-29T00:49:14.074Z,52.00
2022-07-29T00:51:40.783Z,52.10
2022-07-29T00:54:07.514Z,52.30
2022-07-29T00:56:34.225Z,52.30
2022-07-29T00:59:00.865Z,52.40
2022-07-29T01:04:01.955Z,52.70
2022-07-29T01:06:28.619Z,52.70
2022-07-29T01:08:55.220Z,52.90
2022-07-29T01:11:21.896Z,53.00
2022-07-29T01:13:48.563Z,53.00
2022-07-29T01:16:26.628Z,53.00
2022-07-29T01:18:55.220Z,53.10
2022-07-29T01:21:43.346Z,53.30
2022-07-29T01:24:23.008Z,53.40
2022-07-29T01:27:03.496Z,53.40
2022-07-29T01:29:36.277Z,53.40
2022-07-29T01:32:27.485Z,53.60
2022-07-29T01:35:34.037Z,53.80
2022-07-29T01:38:14.482Z,54.00
2022-07-29T01:40:50.476Z,54.20
2022-07-29T01:43:19.634Z,54.30
2022-07-29T01:45:51.801Z,54.40
2022-07-29T01:48:23.781Z,54.60
2022-07-29T01:51:03.501Z,55.00
2022-07-29T01:53:38.795Z,55.00
2022-07-29T01:56:05.799Z,55.10
2022-07-29T01:58:32.611Z,55.20
2022-07-29T02:00:59.690Z,55.20
2022-07-29T02:03:26.505Z,55.50
2022-07-29T02:05:53.148Z,55.50
2022-07-29T02:08:19.958Z,55.60
2022-07-29T02:10:47.553Z,55.60
2022-07-29T02:13:14.294Z,55.60
2022-07-29T02:15:40.989Z,55.70
2022-07-29T02:18:20.215Z,55.70
2022-07-29T02:20:49.165Z,55.90
2022-07-29T02:23:17.059Z,56.00
2022-07-29T02:25:43.710Z,56.10
2022-07-29T02:28:11.972Z,56.20
2022-07-29T02:30:41.249Z,56.30
2022-07-29T02:33:11.327Z,56.50
2022-07-29T02:35:38.250Z,56.50
2022-07-29T02:38:04.872Z,56.50
2022-07-29T02:40:31.482Z,56.60
2022-07-29T02:42:58.104Z,56.60
2022-07-29T02:45:24.742Z,56.70
2022-07-29T02:47:51.358Z,56.80
2022-07-29T02:50:37.052Z,56.90
2022-07-29T02:53:08.621Z,57.00
2022-07-29T02:55:55.558Z,57.00
2022-07-29T02:58:43.539Z,57.10
2022-07-29T03:01:21.722Z,57.30
2022-07-29T03:03:49.794Z,57.30
2022-07-29T03:06:28.137Z,57.30
2022-07-29T03:09:03.222Z,57.50
2022-07-29T03:11:40.072Z,57.50
2022-07-29T03:14:13.523Z,57.70
2022-07-29T03:16:41.406Z,57.70
2022-07-29T03:19:08.112Z,57.90
2022-07-29T03:21:34.733Z,58.00
2022-07-29T03:24:02.757Z,58.00
2022-07-29T03:26:31.113Z,58.00
2022-07-29T03:28:57.747Z,58.10
2022-07-29T03:31:24.503Z,58.20
2022-07-29T03:33:51.253Z,58.30
2022-07-29T03:36:32.673Z,58.30
2022-07-29T03:38:59.304Z,58.40
2022-07-29T03:41:26.597Z,58.40
2022-07-29T03:43:53.342Z,58.50
2022-07-29T03:46:20.415Z,58.60
2022-07-29T03:48:49.838Z,58.70
2022-07-29T03:51:16.644Z,58.70
2022-07-29T03:53:43.317Z,58.70
2022-07-29T03:56:09.915Z,58.70
2022-07-29T03:58:36.578Z,58.60
2022-07-29T04:01:03.279Z,58.80
2022-07-29T04:03:30.010Z,58.80
2022-07-29T04:06:04.621Z,58.90
2022-07-29T04:08:31.263Z,59.00
2022-07-29T04:10:57.907Z,59.20
2022-07-29T04:13:24.569Z,59.30
2022-07-29T04:15:51.312Z,59.40
2022-07-29T04:18:18.086Z,59.40
2022-07-29T04:20:44.815Z,59.50
2022-07-29T04:23:11.524Z,59.50
2022-07-29T04:25:39.292Z,59.60
2022-07-29T04:28:06.461Z,59.70
2022-07-29T04:30:33.416Z,59.70
2022-07-29T04:33:00.914Z,59.90
2022-07-29T04:35:28.359Z,60.10
2022-07-29T04:37:55.043Z,60.30
2022-07-29T04:40:21.807Z,60.40
2022-07-29T04:42:48.426Z,60.60
2022-07-29T04:45:16.266Z,60.70
2022-07-29T04:47:42.911Z,60.80
2022-07-29T04:50:10.176Z,60.90
2022-07-29T04:52:37.058Z,60.90
2022-07-29T04:55:04.862Z,61.00
2022-07-29T04:57:31.541Z,61.20
2022-07-29T04:59:58.267Z,61.20
2022-07-29T05:02:25.038Z,61.40
2022-07-29T05:04:51.751Z,61.40
2022-07-29T05:07:18.369Z,61.50
2022-07-29T05:09:45.017Z,61.50
2022-07-29T05:12:11.842Z,61.60
2022-07-29T05:14:38.574Z,61.70
2022-07-29T05:17:05.205Z,61.80
2022-07-29T05:19:31.843Z,61.80
2022-07-29T05:21:58.583Z,61.70
2022-07-29T05:24:25.276Z,61.70
2022-07-29T05:26:51.982Z,61.70
2022-07-29T05:29:43.389Z,61.70
2022-07-29T05:32:05.631Z,61.60
2022-07-29T05:34:32.586Z,61.70
2022-07-29T05:36:59.292Z,61.70
2022-07-29T05:39:48.969Z,61.70
2022-07-29T05:42:12.553Z,61.60
2022-07-29T05:44:40.172Z,61.50
2022-07-29T05:47:06.891Z,61.50
2022-07-29T05:49:33.787Z,61.40
2022-07-29T05:52:00.496Z,61.20
2022-07-29T05:54:27.174Z,61.20
2022-07-29T05:56:54.318Z,60.90
2022-07-29T05:59:20.957Z,60.70
2022-07-29T06:01:47.740Z,60.70
2022-07-29T06:04:15.163Z,60.60
2022-07-29T06:06:42.003Z,60.50
2022-07-29T06:09:12.075Z,60.40
2022-07-29T06:11:39.399Z,60.20
2022-07-29T06:14:06.104Z,60.00
2022-07-29T06:16:32.821Z,60.00
2022-07-29T06:18:59.519Z,59.90
2022-07-29T06:21:28.445Z,59.70
2022-07-29T06:23:55.074Z,59.60
2022-07-29T06:26:30.768Z,59.40
2022-07-29T06:28:58.219Z,59.20
2022-07-29T06:31:24.903Z,59.10
2022-07-29T06:33:51.735Z,58.90
2022-07-29T06:36:21.416Z,58.60
2022-07-29T06:38:51.312Z,58.40
2022-07-29T06:41:18.830Z,58.30
2022-07-29T06:43:52.627Z,58.10
2022-07-29T06:46:21.617Z,57.80
2022-07-29T06:48:48.545Z,57.70
2022-07-29T06:51:17.109Z,57.50
2022-07-29T06:54:00.072Z,57.40
2022-07-29T06:56:31.256Z,57.10
2022-07-29T06:58:57.976Z,56.70
2022-07-29T07:01:24.682Z,56.50
2022-07-29T07:03:51.350Z,56.30
2022-07-29T07:06:18.102Z,56.00
2022-07-29T07:08:44.785Z,55.80
2022-07-29T07:11:11.443Z,55.60
2022-07-29T07:13:38.041Z,55.70
2022-07-29T07:16:05.112Z,55.70
2022-07-29T07:18:31.752Z,55.90
2022-07-29T07:20:58.407Z,56.10
2022-07-29T07:23:25.084Z,56.20
2022-07-29T07:25:51.787Z,56.40
2022-07-29T07:28:18.425Z,56.40
2022-07-29T07:30:51.581Z,56.50
2022-07-29T07:33:18.248Z,56.40
2022-07-29T07:35:44.894Z,56.00
2022-07-29T07:38:11.538Z,55.30
2022-07-29T07:40:38.159Z,54.50
2022-07-29T07:43:04.787Z,53.60
2022-07-29T07:45:31.562Z,52.40
2022-07-29T07:47:58.314Z,51.30
2022-07-29T07:50:25.033Z,50.50
2022-07-29T07:52:53.152Z,50.00
2022-07-29T07:55:21.198Z,49.20
2022-07-29T07:57:48.032Z,48.50
2022-07-29T08:00:15.087Z,47.60
2022-07-29T08:02:41.877Z,47.10
2022-07-29T08:05:12.604Z,46.30
2022-07-29T08:07:39.720Z,45.60
2022-07-29T08:10:06.775Z,44.90
2022-07-29T08:12:33.419Z,44.40
2022-07-29T08:15:00.089Z,43.80
2022-07-29T08:17:26.915Z,43.20
2022-07-29T08:19:53.699Z,42.80
2022-07-29T08:22:20.368Z,42.00
2022-07-29T08:24:47.030Z,41.90
2022-07-29T08:27:40.787Z,41.70
2022-07-29T08:30:02.553Z,41.70
2022-07-29T08:32:51.898Z,41.30
2022-07-29T08:35:15.998Z,40.60
2022-07-29T08:37:42.662Z,40.00
2022-07-29T08:40:09.731Z,39.70
2022-07-29T08:42:36.520Z,39.60
2022-07-29T08:45:04.295Z,39.40
2022-07-29T08:47:30.983Z,39.00
2022-07-29T08:49:57.608Z,38.60
2022-07-29T08:52:27.167Z,38.70
2022-07-29T08:54:54.326Z,38.20
2022-07-29T08:57:22.822Z,38.50
2022-07-29T08:59:49.574Z,37.90
2022-07-29T09:02:23.140Z,37.80
2022-07-29T09:04:50.115Z,37.40
2022-07-29T09:07:17.889Z,36.90
2022-07-29T09:09:44.637Z,36.40
2022-07-29T09:12:11.737Z,35.70
2022-07-29T09:14:41.424Z,35.10
2022-07-29T09:17:08.317Z,34.80
2022-07-29T09:19:36.334Z,34.40
2022-07-29T09:22:05.623Z,34.10
2022-07-29T09:24:39.371Z,33.90
2022-07-29T09:27:12.282Z,33.30
2022-07-29T09:29:38.976Z,33.40
2022-07-29T09:32:08.012Z,32.60
2022-07-29T09:34:34.643Z,32.40
2022-07-29T09:37:01.307Z,32.40
2022-07-29T09:39:38.480Z,32.30
2022-07-29T09:42:06.295Z,32.00
2022-07-29T09:44:50.796Z,32.20
2022-07-29T09:47:18.515Z,31.50
2022-07-29T09:50:00.989Z,31.80
2022-07-29T09:52:28.542Z,31.50
2022-07-29T09:55:08.283Z,31.50
2022-07-29T09:57:34.937Z,30.70
2022-07-29T10:00:05.767Z,30.60
2022-07-29T10:02:33.123Z,30.30
2022-07-29T10:05:00.765Z,30.40
2022-07-29T10:07:27.627Z,30.20
2022-07-29T10:09:55.694Z,29.50
2022-07-29T10:12:22.537Z,29.50
2022-07-29T10:14:49.204Z,29.30
2022-07-29T10:17:16.049Z,29.20
2022-07-29T10:19:42.684Z,29.00
2022-07-29T10:22:09.887Z,28.90
2022-07-29T10:24:37.198Z,29.00
2022-07-29T10:27:05.382Z,29.20
2022-07-29T10:29:32.073Z,28.70
2022-07-29T10:32:10.521Z,28.90
2022-07-29T10:34:59.311Z,28.50
2022-07-29T10:40:46.617Z,28.20
2022-07-29T10:43:21.475Z,27.30
2022-07-29T10:45:48.869Z,27.00
2022-07-29T10:48:16.960Z,27.00
2022-07-29T10:51:04.015Z,26.70
2022-07-29T10:53:50.565Z,26.00
2022-07-29T10:56:28.095Z,25.80
2022-07-29T10:59:18.986Z,26.10
2022-07-29T11:01:51.305Z,25.10
2022-07-29T11:04:45.412Z,25.30
2022-07-29T11:07:15.266Z,25.40
2022-07-29T11:09:41.987Z,25.50
2022-07-29T11:12:39.367Z,25.30
2022-07-29T11:15:07.429Z,25.30
2022-07-29T11:17:53.423Z,25.10
2022-07-29T11:20:49.876Z,25.60
2022-07-29T11:23:20.893Z,25.60
2022-07-29T11:26:12.989Z,25.90
2022-07-29T11:28:51.897Z,25.50
2022-07-29T11:31:48.864Z,25.40
2022-07-29T11:37:14.680Z,24.90
2022-07-29T11:39:41.975Z,24.70
2022-07-29T11:42:17.514Z,24.40
2022-07-29T11:45:44.122Z,24.20
2022-07-29T11:48:28.011Z,24.00
2022-07-29T11:50:48.307Z,23.90
2022-07-29T11:53:16.087Z,23.80
2022-07-29T11:55:50.975Z,23.60
2022-07-29T11:58:22.378Z,23.80
2022-07-29T12:00:51.958Z,24.00
2022-07-29T12:03:33.461Z,23.50
2022-07-29T12:06:03.781Z,23.50
2022-07-29T12:07:03.925Z,25.00
2022-07-29T12:08:30.378Z,23.20
2022-07-29T12:10:57.098Z,23.00
2022-07-29T12:13:37.302Z,22.50
2022-07-29T12:16:05.045Z,22.80
2022-07-29T12:18:32.218Z,22.50
2022-07-29T12:21:03.536Z,22.50
2022-07-29T12:23:34.653Z,22.40
2022-07-29T12:26:07.714Z,22.50
2022-07-29T12:28:40.187Z,22.20
2022-07-29T12:31:09.310Z,22.00
2022-07-29T12:33:50.619Z,21.90
2022-07-29T12:36:17.941Z,22.00
2022-07-29T12:38:44.849Z,22.20
2022-07-29T12:41:11.576Z,22.30
2022-07-29T12:43:38.234Z,22.00
2022-07-29T12:46:15.017Z,22.10
2022-07-29T12:48:43.422Z,22.20
2022-07-29T12:51:10.534Z,22.50
2022-07-29T12:53:41.245Z,22.90
2022-07-29T12:56:26.623Z,22.70
2022-07-29T12:58:57.188Z,22.90
2022-07-29T13:01:24.431Z,23.00
2022-07-29T13:03:57.347Z,23.40
2022-07-29T13:06:33.514Z,23.20
2022-07-29T13:09:17.098Z,23.30
2022-07-29T13:11:53.535Z,23.40
2022-07-29T13:14:40.828Z,23.90
2022-07-29T13:17:11.238Z,24.40
2022-07-29T13:19:45.809Z,24.50
2022-07-29T13:22:14.937Z,24.70
2022-07-29T13:24:48.528Z,24.80
2022-07-29T13:27:16.718Z,24.50
2022-07-29T13:29:43.520Z,24.30
2022-07-29T13:32:10.240Z,23.80
2022-07-29T13:34:36.878Z,23.30
2022-07-29T13:37:03.507Z,22.90
2022-07-29T13:39:30.131Z,23.20
2022-07-29T13:41:57.607Z,23.50
2022-07-29T13:44:24.422Z,24.10
2022-07-29T13:46:51.943Z,24.70
2022-07-29T13:49:18.650Z,25.20
2022-07-29T13:51:45.368Z,25.30
2022-07-29T13:54:12.320Z,25.50
2022-07-29T13:56:38.946Z,25.30
2022-07-29T13:59:05.642Z,25.10
2022-07-29T14:01:32.322Z,25.10
2022-07-29T14:03:59.000Z,25.10
2022-07-29T14:06:25.898Z,24.70
2022-07-29T14:08:52.574Z,24.40
2022-07-29T14:11:19.335Z,24.00
2022-07-29T14:13:46.079Z,24.10
2022-07-29T14:16:12.840Z,23.80
2022-07-29T14:18:39.568Z,23.50
2022-07-29T14:21:06.176Z,23.60
2022-07-29T14:23:32.814Z,23.80
2022-07-29T14:25:59.471Z,24.00
2022-07-29T14:28:26.109Z,23.90
2022-07-29T14:30:52.772Z,23.80
2022-07-29T14:33:19.391Z,23.50
2022-07-29T14:35:46.231Z,23.70
2022-07-29T14:38:12.898Z,23.50
2022-07-29T14:40:39.532Z,23.50
2022-07-29T14:43:06.150Z,23.60
2022-07-29T14:45:32.870Z,23.70
2022-07-29T14:47:59.618Z,23.90
2022-07-29T14:50:32.074Z,23.60
2022-07-29T14:53:02.998Z,23.60
2022-07-29T14:55:29.734Z,23.80
2022-07-29T14:58:03.249Z,24.00
2022-07-29T15:00:34.643Z,24.10
2022-07-29T15:03:02.880Z,24.30
2022-07-29T15:05:30.532Z,24.40
2022-07-29T15:07:57.305Z,24.30
2022-07-29T15:10:24.847Z,24.40
2022-07-29T15:12:51.563Z,24.40
2022-07-29T15:15:18.284Z,24.50
2022-07-29T15:17:44.943Z,24.60
2022-07-29T15:20:11.848Z,24.70
2022-07-29T15:22:38.711Z,24.70
2022-07-29T15:25:06.414Z,24.60
2022-07-29T15:27:33.058Z,24.60
2022-07-29T15:29:59.738Z,25.00
2022-07-29T15:32:26.874Z,24.90
2022-07-29T15:34:53.547Z,24.80
2022-07-29T15:37:20.191Z,24.80
2022-07-29T15:39:46.857Z,24.60
2022-07-29T15:42:13.475Z,24.60
2022-07-29T15:44:40.096Z,24.60
2022-07-29T15:47:06.752Z,24.60
2022-07-29T15:49:47.134Z,24.90
2022-07-29T15:52:18.550Z,25.30
2022-07-29T15:54:45.194Z,25.80
2022-07-29T15:57:11.868Z,26.20
2022-07-29T15:59:38.502Z,26.10
2022-07-29T16:02:05.294Z,26.50
2022-07-29T16:04:32.280Z,26.60
2022-07-29T16:06:59.370Z,26.60
2022-07-29T16:09:26.432Z,26.90
2022-07-29T16:11:53.066Z,27.20
2022-07-29T16:14:20.234Z,27.00
2022-07-29T16:16:46.978Z,27.00
2022-07-29T16:19:13.733Z,27.30
2022-07-29T16:21:40.413Z,27.30
2022-07-29T16:24:07.471Z,27.40
2022-07-29T16:26:35.341Z,27.50
2022-07-29T16:29:02.014Z,27.50
2022-07-29T16:31:28.705Z,27.50
2022-07-29T16:33:56.044Z,27.80
2022-07-29T16:36:22.954Z,27.90
2022-07-29T16:38:49.662Z,28.10
2022-07-29T16:41:16.498Z,28.00
2022-07-29T16:43:43.292Z,28.30
2022-07-29T16:46:13.979Z,28.50
2022-07-29T16:48:45.511Z,28.80
2022-07-29T16:51:14.551Z,29.10
2022-07-29T16:53:42.516Z,29.20
2022-07-29T16:56:11.161Z,29.30
2022-07-29T16:58:45.118Z,29.60
2022-07-29T17:01:12.257Z,29.70
2022-07-29T17:03:39.039Z,30.10
2022-07-29T17:06:05.766Z,30.30
2022-07-29T17:08:32.398Z,30.60
2022-07-29T17:10:59.006Z,30.70
2022-07-29T17:13:25.685Z,31.00
2022-07-29T17:15:53.884Z,31.20
2022-07-29T17:18:22.168Z,31.70
2022-07-29T17:20:48.794Z,32.20
2022-07-29T17:23:15.451Z,32.40
2022-07-29T17:25:42.098Z,32.60
2022-07-29T17:28:08.731Z,32.90
2022-07-29T17:30:35.378Z,33.10
2022-07-29T17:33:01.993Z,33.20
2022-07-29T17:35:28.604Z,33.30
2022-07-29T17:37:55.270Z,33.50
2022-07-29T17:40:22.002Z,33.60
2022-07-29T17:42:50.993Z,33.40
2022-07-29T17:45:17.901Z,33.30
2022-07-29T17:47:46.875Z,33.30
2022-07-29T17:50:13.529Z,33.60
2022-07-29T17:52:40.171Z,33.80
2022-07-29T17:55:07.477Z,33.90
2022-07-29T17:57:34.122Z,33.90
2022-07-29T18:00:00.773Z,33.50
2022-07-29T18:02:28.406Z,33.60
2022-07-29T18:04:55.243Z,33.90
2022-07-29T18:07:21.993Z,35.20
2022-07-29T18:09:51.763Z,36.00
2022-07-29T18:12:18.444Z,36.80
2022-07-29T18:14:45.102Z,37.40
2022-07-29T18:17:12.163Z,38.30
2022-07-29T18:19:38.869Z,39.00
2022-07-29T18:22:05.684Z,39.50
2022-07-29T18:24:32.621Z,39.90
2022-07-29T18:27:00.338Z,40.60
2022-07-29T18:29:27.283Z,41.00
2022-07-29T18:31:54.132Z,41.30
2022-07-29T18:34:20.761Z,41.60
2022-07-29T18:36:47.469Z,42.10
2022-07-29T18:39:20.235Z,42.40
2022-07-29T18:41:49.954Z,42.70
2022-07-29T18:44:43.697Z,43.10
2022-07-29T18:47:15.843Z,43.50
2022-07-29T18:49:42.546Z,44.10
2022-07-29T18:52:09.179Z,44.40
2022-07-29T18:54:35.805Z,44.60
2022-07-29T18:57:02.474Z,44.90
2022-07-29T18:59:49.390Z,45.10
2022-07-29T19:02:16.129Z,45.20
2022-07-29T19:04:42.980Z,45.70
2022-07-29T19:07:09.718Z,45.80
2022-07-29T19:09:36.361Z,46.00
2022-07-29T19:12:16.040Z,46.40
2022-07-29T19:14:42.719Z,46.50
2022-07-29T19:17:09.428Z,46.70
2022-07-29T19:19:36.108Z,47.00
2022-07-29T19:22:02.730Z,47.20
2022-07-29T19:24:29.340Z,47.70
2022-07-29T19:26:56.154Z,48.10
2022-07-29T19:29:26.189Z,48.60
2022-07-29T19:31:52.886Z,49.00
2022-07-29T19:34:19.625Z,49.20
2022-07-29T19:36:46.348Z,49.40
2022-07-29T19:39:13.157Z,49.60
2022-07-29T19:41:39.856Z,49.70
2022-07-29T19:44:09.462Z,50.00
2022-07-29T19:46:36.217Z,50.30
2022-07-29T19:49:03.150Z,50.50
2022-07-29T19:51:29.913Z,50.80
2022-07-29T19:53:56.843Z,51.00
2022-07-29T19:56:24.110Z,51.30
2022-07-29T19:58:50.810Z,51.60
2022-07-29T20:01:21.363Z,51.90
2022-07-29T20:03:48.468Z,52.00
2022-07-29T20:06:15.399Z,52.00
2022-07-29T20:08:42.062Z,52.20
2022-07-29T20:11:08.847Z,52.50
2022-07-29T20:13:35.543Z,53.00
2022-07-29T20:16:02.474Z,53.60
2022-07-29T20:18:31.797Z,53.80
2022-07-29T20:21:01.456Z,54.30
2022-07-29T20:23:28.134Z,54.70
2022-07-29T20:25:59.954Z,54.40
2022-07-29T20:28:26.664Z,54.90
2022-07-29T20:30:53.457Z,55.50
2022-07-29T20:33:20.482Z,55.60
2022-07-29T20:35:47.341Z,55.80
2022-07-29T20:38:18.152Z,56.30
2022-07-29T20:40:45.330Z,56.60
2022-07-29T20:43:11.999Z,56.70
2022-07-29T20:45:38.802Z,56.80
2022-07-29T20:48:05.989Z,57.10
2022-07-29T20:50:35.102Z,57.40
2022-07-29T20:53:01.803Z,57.40
2022-07-29T20:55:28.487Z,57.50
2022-07-29T20:57:55.491Z,57.60
2022-07-29T21:00:22.706Z,57.60
2022-07-29T21:02:49.462Z,57.80
2022-07-29T21:05:16.178Z,57.90
2022-07-29T21:07:42.837Z,58.30
2022-07-29T21:10:09.642Z,58.60
2022-07-29T21:12:36.606Z,58.70
2022-07-29T21:15:03.556Z,58.80
2022-07-29T21:17:30.233Z,59.20
2022-07-29T21:19:57.034Z,59.20
2022-07-29T21:22:23.820Z,59.50
2022-07-29T21:24:50.490Z,59.50
2022-07-29T21:27:21.720Z,59.80
2022-07-29T21:29:48.773Z,59.80
2022-07-29T21:32:29.850Z,59.90
2022-07-29T21:34:57.406Z,60.00
2022-07-29T21:37:24.135Z,60.20
2022-07-29T21:39:50.792Z,60.20
2022-07-29T21:42:20.617Z,60.30
2022-07-29T21:44:57.598Z,60.40
2022-07-29T21:47:24.446Z,60.50
2022-07-29T21:49:51.075Z,60.60
2022-07-29T21:52:19.948Z,60.70
2022-07-29T21:54:50.526Z,60.70
2022-07-29T21:57:20.170Z,60.90
2022-07-29T21:59:50.018Z,60.90
